Time;durP1;ratioP1;P1;durP2;ratioP2;P2;SDS_P1;SDS_P2;PMS_P1;PMS_P2;Temp;Humidity;BMP_temperature;BMP_pressure;BME280_temperature;BME280_humidity;BME280_pressure;Samples;Min_cycle;Max_cycle;Signal;HPM_P1;HPM_P2
2023/08/28 00:01:20;;;;;;;7.37;2.53;;;;;;;;;;5032187;28;20475;-56
2023/08/28 00:03:48;;;;;;;3.30;0.90;;;;;;;;;;5032511;28;20549;-57
2023/08/28 00:06:17;;;;;;;1.67;0.80;;;;;;;;;;5032864;28;20533;-58
2023/08/28 00:08:44;;;;;;;1.97;0.60;;;;;;;;;;5032590;28;20453;-55
2023/08/28 00:11:11;;;;;;;1.77;0.80;;;;;;;;;;5032651;28;20501;-56
2023/08/28 00:13:38;;;;;;;1.57;0.57;;;;;;;;;;5032369;28;20505;-56
2023/08/28 00:16:06;;;;;;;2.40;0.60;;;;;;;;;;5032161;28;20864;-55
2023/08/28 00:18:34;;;;;;;1.50;0.70;;;;;;;;;;5031499;28;20442;-56
2023/08/28 00:21:04;;;;;;;1.80;0.80;;;;;;;;;;5032186;28;20447;-55
2023/08/28 00:23:32;;;;;;;2.00;0.90;;;;;;;;;;5032645;28;20493;-55
2023/08/28 00:25:59;;;;;;;2.17;0.60;;;;;;;;;;5032465;28;20444;-55
2023/08/28 00:28:26;;;;;;;1.80;0.60;;;;;;;;;;5032589;28;20478;-57
2023/08/28 00:30:54;;;;;;;2.00;0.80;;;;;;;;;;5032195;28;20500;-56
2023/08/28 00:33:21;;;;;;;1.73;0.60;;;;;;;;;;5031689;28;20542;-56
2023/08/28 00:35:48;;;;;;;2.17;0.60;;;;;;;;;;5031714;28;20894;-57
2023/08/28 00:38:17;;;;;;;2.27;0.77;;;;;;;;;;5031659;28;20527;-55
2023/08/28 00:40:44;;;;;;;1.60;0.63;;;;;;;;;;5032354;28;20474;-55
2023/08/28 00:43:12;;;;;;;1.80;0.50;;;;;;;;;;5030863;28;20483;-55
2023/08/28 00:45:41;;;;;;;2.13;0.80;;;;;;;;;;5031991;28;20504;-55
2023/08/28 00:48:08;;;;;;;2.30;1.00;;;;;;;;;;5031688;28;20554;-55
2023/08/28 00:50:35;;;;;;;3.50;0.70;;;;;;;;;;5032097;28;20500;-56
2023/08/28 00:53:03;;;;;;;1.70;0.60;;;;;;;;;;5031957;28;20968;-56
2023/08/28 00:55:33;;;;;;;1.80;0.60;;;;;;;;;;5031742;28;20481;-56
2023/08/28 00:58:00;;;;;;;1.63;0.77;;;;;;;;;;5031131;28;20470;-56
2023/08/28 01:00:27;;;;;;;2.00;0.63;;;;;;;;;;5032057;28;20897;-56
2023/08/28 01:02:55;;;;;;;1.90;0.60;;;;;;;;;;5031676;28;20477;-57
2023/08/28 01:05:24;;;;;;;1.77;0.70;;;;;;;;;;5031163;28;20880;-56
2023/08/28 01:07:54;;;;;;;1.73;0.50;;;;;;;;;;5031231;28;20442;-56
2023/08/28 01:10:24;;;;;;;2.27;0.90;;;;;;;;;;5031337;28;20484;-56
2023/08/28 01:12:55;;;;;;;2.03;0.60;;;;;;;;;;5031218;28;20866;-57
2023/08/28 01:15:23;;;;;;;2.20;0.83;;;;;;;;;;5031709;28;20478;-57
2023/08/28 01:17:53;;;;;;;1.60;0.70;;;;;;;;;;5031992;28;20517;-55
2023/08/28 01:20:21;;;;;;;4.00;1.00;;;;;;;;;;5031241;28;20442;-55
2023/08/28 01:22:55;;;;;;;2.23;0.80;;;;;;;;;;5031206;28;20473;-55
2023/08/28 01:25:24;;;;;;;2.50;0.63;;;;;;;;;;5031192;28;20515;-56
2023/08/28 01:27:52;;;;;;;1.47;0.50;;;;;;;;;;5031237;28;20533;-55
2023/08/28 01:30:20;;;;;;;2.63;0.87;;;;;;;;;;5030249;28;21199;-55
2023/08/28 01:32:47;;;;;;;1.67;0.57;;;;;;;;;;5030602;28;20477;-57
2023/08/28 01:35:16;;;;;;;2.07;0.80;;;;;;;;;;5030968;28;20500;-55
2023/08/28 01:37:45;;;;;;;1.43;0.50;;;;;;;;;;5031195;28;20500;-56
2023/08/28 01:40:15;;;;;;;1.80;0.60;;;;;;;;;;5031111;28;20434;-55
2023/08/28 01:42:46;;;;;;;1.73;0.73;;;;;;;;;;5030265;28;20528;-55
2023/08/28 01:45:15;;;;;;;2.07;0.53;;;;;;;;;;5025827;28;20979;-55
2023/08/28 01:47:42;;;;;;;1.50;0.60;;;;;;;;;;5031172;28;20500;-55
2023/08/28 01:50:10;;;;;;;1.80;0.80;;;;;;;;;;5030371;28;20446;-55
2023/08/28 01:52:37;;;;;;;2.27;0.80;;;;;;;;;;5030867;28;20957;-57
2023/08/28 01:55:05;;;;;;;2.33;0.73;;;;;;;;;;5031347;28;20446;-56
2023/08/28 01:57:32;;;;;;;2.00;0.90;;;;;;;;;;5031111;28;20496;-55
2023/08/28 02:00:01;;;;;;;1.50;0.57;;;;;;;;;;5030280;28;20450;-55
2023/08/28 02:02:28;;;;;;;2.17;0.73;;;;;;;;;;5030945;28;20477;-55
2023/08/28 02:04:55;;;;;;;2.37;0.80;;;;;;;;;;5030847;28;20442;-55
2023/08/28 02:07:23;;;;;;;2.53;0.90;;;;;;;;;;5031136;28;20478;-55
2023/08/28 02:09:50;;;;;;;2.33;0.87;;;;;;;;;;5030144;28;20438;-56
2023/08/28 02:12:17;;;;;;;1.70;0.70;;;;;;;;;;5031120;28;20438;-55
2023/08/28 02:14:44;;;;;;;2.50;0.80;;;;;;;;;;5030817;28;20508;-55
2023/08/28 02:17:13;;;;;;;3.33;0.90;;;;;;;;;;5030436;28;20530;-56
2023/08/28 02:19:40;;;;;;;2.00;0.83;;;;;;;;;;5026337;28;20534;-57
2023/08/28 02:22:07;;;;;;;1.50;0.67;;;;;;;;;;5030463;28;20496;-56
2023/08/28 02:24:35;;;;;;;2.47;0.80;;;;;;;;;;5030881;28;20889;-56
2023/08/28 02:27:02;;;;;;;1.83;0.83;;;;;;;;;;5030118;28;20473;-55
2023/08/28 02:29:29;;;;;;;2.47;0.70;;;;;;;;;;5030109;28;20821;-55
2023/08/28 02:31:56;;;;;;;1.90;0.80;;;;;;;;;;5030390;28;20529;-55
2023/08/28 02:34:25;;;;;;;1.60;0.70;;;;;;;;;;5030595;28;20490;-55
2023/08/28 02:36:52;;;;;;;5.10;0.77;;;;;;;;;;5030059;28;20446;-55
2023/08/28 02:39:20;;;;;;;2.37;1.70;;;;;;;;;;5030647;28;20503;-57
2023/08/28 02:41:47;;;;;;;1.60;0.60;;;;;;;;;;5029851;28;20795;-55
2023/08/28 02:44:14;;;;;;;1.93;0.97;;;;;;;;;;5105488;22;20497;-59
2023/08/28 02:46:41;;;;;;;2.03;0.87;;;;;;;;;;5062021;28;20437;-58
2023/08/28 02:49:09;;;;;;;1.80;0.93;;;;;;;;;;5051527;28;20441;-59
2023/08/28 02:51:38;;;;;;;2.00;0.67;;;;;;;;;;5062955;28;20449;-59
2023/08/28 02:54:05;;;;;;;1.70;0.80;;;;;;;;;;5049980;28;21049;-59
2023/08/28 02:56:36;;;;;;;1.70;0.90;;;;;;;;;;5050355;28;20516;-58
2023/08/28 02:59:03;;;;;;;1.80;0.93;;;;;;;;;;5050140;28;20437;-59
2023/08/28 03:01:34;;;;;;;2.23;0.97;;;;;;;;;;5050066;28;20529;-60
2023/08/28 03:04:04;;;;;;;2.33;1.40;;;;;;;;;;5049624;28;20552;-59
2023/08/28 03:06:31;;;;;;;2.20;1.10;;;;;;;;;;5050764;28;20445;-58
2023/08/28 03:09:00;;;;;;;1.83;1.20;;;;;;;;;;5053603;28;20461;-59
2023/08/28 03:11:27;;;;;;;2.70;1.37;;;;;;;;;;5053562;28;20893;-60
2023/08/28 03:13:54;;;;;;;2.47;1.67;;;;;;;;;;5053619;28;20459;-59
2023/08/28 03:16:21;;;;;;;1.70;0.97;;;;;;;;;;5053247;28;20524;-57
2023/08/28 03:18:49;;;;;;;2.13;1.30;;;;;;;;;;5053653;28;20528;-59
2023/08/28 03:21:16;;;;;;;1.93;1.10;;;;;;;;;;5053372;28;20528;-60
2023/08/28 03:23:43;;;;;;;2.67;1.10;;;;;;;;;;5053225;28;20472;-59
2023/08/28 03:26:12;;;;;;;1.90;1.00;;;;;;;;;;5053718;28;20449;-60
2023/08/28 03:28:39;;;;;;;1.70;0.80;;;;;;;;;;5053685;28;20473;-58
2023/08/28 03:31:06;;;;;;;2.23;1.00;;;;;;;;;;5052009;28;20465;-59
2023/08/28 03:33:35;;;;;;;1.83;0.70;;;;;;;;;;5053369;28;20542;-59
2023/08/28 03:36:03;;;;;;;1.60;0.70;;;;;;;;;;5053559;28;20437;-59
2023/08/28 03:38:30;;;;;;;1.67;0.73;;;;;;;;;;5053369;28;20449;-57
2023/08/28 03:40:57;;;;;;;1.50;0.80;;;;;;;;;;5053154;28;20481;-58
2023/08/28 03:43:26;;;;;;;1.50;0.70;;;;;;;;;;5052397;28;21069;-58
2023/08/28 03:45:53;;;;;;;1.90;0.60;;;;;;;;;;5053335;28;20465;-59
2023/08/28 03:48:20;;;;;;;2.33;1.00;;;;;;;;;;5053174;28;20524;-58
2023/08/28 03:50:47;;;;;;;1.83;0.60;;;;;;;;;;5053106;28;20528;-58
2023/08/28 03:53:15;;;;;;;1.80;0.70;;;;;;;;;;5052463;28;20992;-58
2023/08/28 03:55:42;;;;;;;1.80;0.87;;;;;;;;;;5052894;28;20524;-57
2023/08/28 03:58:09;;;;;;;1.90;0.80;;;;;;;;;;5052926;28;20441;-58
2023/08/28 04:00:39;;;;;;;1.70;0.83;;;;;;;;;;5052921;28;20491;-57
2023/08/28 04:03:06;;;;;;;1.80;1.00;;;;;;;;;;5052551;28;20861;-59
2023/08/28 04:05:37;;;;;;;2.27;0.93;;;;;;;;;;5034888;28;20533;-58
2023/08/28 04:08:04;;;;;;;2.17;0.90;;;;;;;;;;5053065;28;20488;-57
2023/08/28 04:10:32;;;;;;;2.50;1.20;;;;;;;;;;5052707;28;20798;-58
2023/08/28 04:12:59;;;;;;;2.10;0.93;;;;;;;;;;5052447;28;20495;-59
2023/08/28 04:15:26;;;;;;;1.87;0.70;;;;;;;;;;5052626;28;20442;-57
2023/08/28 04:17:56;;;;;;;2.67;0.90;;;;;;;;;;5052873;28;20452;-57
2023/08/28 04:20:23;;;;;;;1.77;0.70;;;;;;;;;;5052359;28;20471;-57
2023/08/28 04:22:50;;;;;;;2.73;0.90;;;;;;;;;;5052245;28;20560;-57
2023/08/28 04:25:18;;;;;;;2.00;0.70;;;;;;;;;;5051972;28;20528;-56
2023/08/28 04:27:45;;;;;;;2.57;0.90;;;;;;;;;;5052283;28;20533;-59
2023/08/28 04:30:12;;;;;;;1.60;0.80;;;;;;;;;;5051947;28;20537;-58
2023/08/28 04:32:40;;;;;;;2.20;0.80;;;;;;;;;;5051988;28;20493;-57
2023/08/28 04:35:09;;;;;;;2.73;1.03;;;;;;;;;;5051898;28;20983;-58
2023/08/28 04:37:37;;;;;;;1.70;0.90;;;;;;;;;;5052174;28;20449;-60
2023/08/28 04:40:04;;;;;;;1.53;0.63;;;;;;;;;;5051791;28;20469;-59
2023/08/28 04:42:31;;;;;;;1.70;0.80;;;;;;;;;;5051252;28;20495;-58
2023/08/28 04:44:59;;;;;;;1.83;0.80;;;;;;;;;;5051631;28;20473;-58
2023/08/28 04:47:26;;;;;;;2.07;1.00;;;;;;;;;;5051896;28;20437;-58
2023/08/28 04:49:53;;;;;;;1.90;0.83;;;;;;;;;;5052241;28;20479;-58
2023/08/28 04:52:23;;;;;;;2.43;0.80;;;;;;;;;;5050966;28;21012;-57
2023/08/28 04:54:50;;;;;;;1.70;0.80;;;;;;;;;;5050666;28;20548;-57
2023/08/28 04:57:17;;;;;;;2.33;1.40;;;;;;;;;;5051080;28;20526;-58
2023/08/28 04:59:44;;;;;;;3.77;2.80;;;;;;;;;;5051122;28;20531;-57
2023/08/28 05:02:12;;;;;;;3.30;2.40;;;;;;;;;;5049185;28;20524;-59
2023/08/28 05:04:39;;;;;;;2.70;1.87;;;;;;;;;;5051573;28;20538;-57
2023/08/28 05:07:07;;;;;;;2.43;1.30;;;;;;;;;;5051035;28;20469;-58
2023/08/28 05:09:36;;;;;;;2.07;1.17;;;;;;;;;;5049194;28;20438;-59
2023/08/28 05:12:03;;;;;;;2.20;0.93;;;;;;;;;;5048814;28;20524;-58
2023/08/28 05:14:30;;;;;;;1.90;1.03;;;;;;;;;;5049749;28;20541;-59
2023/08/28 05:16:57;;;;;;;1.73;0.97;;;;;;;;;;5049549;28;20492;-59
2023/08/28 05:19:25;;;;;;;2.47;1.10;;;;;;;;;;5049858;28;20465;-58
2023/08/28 05:21:52;;;;;;;1.90;0.93;;;;;;;;;;5048819;28;20515;-57
2023/08/28 05:24:19;;;;;;;3.50;1.00;;;;;;;;;;5049268;28;20568;-57
2023/08/28 05:26:48;;;;;;;1.97;0.77;;;;;;;;;;5049536;28;20434;-57
2023/08/28 05:29:15;;;;;;;2.23;0.83;;;;;;;;;;5048681;28;20532;-60
2023/08/28 05:31:42;;;;;;;1.63;0.67;;;;;;;;;;5048671;28;20477;-58
2023/08/28 05:34:09;;;;;;;1.90;0.80;;;;;;;;;;5049958;28;20869;-60
2023/08/28 05:36:37;;;;;;;2.00;1.00;;;;;;;;;;5050438;28;20524;-59
2023/08/28 05:39:04;;;;;;;1.90;1.03;;;;;;;;;;5050528;28;20554;-59
2023/08/28 05:41:31;;;;;;;1.80;0.90;;;;;;;;;;5050805;28;21035;-59
2023/08/28 05:44:00;;;;;;;2.50;1.13;;;;;;;;;;5050108;28;20572;-58
2023/08/28 05:46:27;;;;;;;3.77;1.20;;;;;;;;;;5050514;28;20441;-58
2023/08/28 05:48:54;;;;;;;1.80;1.00;;;;;;;;;;5050780;28;20869;-59
2023/08/28 05:51:21;;;;;;;2.10;1.03;;;;;;;;;;5050505;28;20465;-59
2023/08/28 05:53:49;;;;;;;1.80;0.83;;;;;;;;;;5050082;28;20457;-58
2023/08/28 05:56:16;;;;;;;1.90;1.00;;;;;;;;;;5049725;28;20499;-60
2023/08/28 05:58:43;;;;;;;2.03;1.30;;;;;;;;;;5048796;28;20477;-59
2023/08/28 06:01:12;;;;;;;1.73;0.87;;;;;;;;;;5048665;28;20446;-59
2023/08/28 06:03:39;;;;;;;1.90;1.20;;;;;;;;;;5048681;28;20568;-60
2023/08/28 06:06:06;;;;;;;2.00;1.37;;;;;;;;;;5049097;28;20520;-60
2023/08/28 06:08:34;;;;;;;1.70;0.93;;;;;;;;;;5049234;28;20441;-59
2023/08/28 06:11:01;;;;;;;1.70;0.70;;;;;;;;;;5048328;28;20453;-59
2023/08/28 06:13:28;;;;;;;1.90;0.97;;;;;;;;;;5049796;28;20496;-58
2023/08/28 06:15:55;;;;;;;2.00;0.83;;;;;;;;;;5049971;28;20990;-59
2023/08/28 06:18:24;;;;;;;1.80;1.00;;;;;;;;;;5050458;28;20786;-59
2023/08/28 06:20:51;;;;;;;2.67;1.10;;;;;;;;;;5050235;28;20571;-58
2023/08/28 06:23:19;;;;;;;2.80;2.03;;;;;;;;;;5049031;28;20500;-59
2023/08/28 06:25:47;;;;;;;2.33;1.63;;;;;;;;;;5050472;28;20459;-59
2023/08/28 06:28:15;;;;;;;2.37;1.50;;;;;;;;;;5050722;28;20445;-59
2023/08/28 06:30:42;;;;;;;2.80;1.80;;;;;;;;;;5050346;28;20445;-57
2023/08/28 06:33:09;;;;;;;1.90;1.20;;;;;;;;;;5049889;28;20457;-57
2023/08/28 06:35:38;;;;;;;2.03;1.13;;;;;;;;;;5050324;28;20476;-58
2023/08/28 06:38:05;;;;;;;1.70;0.90;;;;;;;;;;5050406;28;20540;-60
2023/08/28 06:40:32;;;;;;;1.90;1.07;;;;;;;;;;5050292;28;20488;-57
2023/08/28 06:43:00;;;;;;;2.47;1.10;;;;;;;;;;5053447;28;20536;-59
2023/08/28 06:45:27;;;;;;;1.67;0.83;;;;;;;;;;5054455;28;20559;-59
2023/08/28 06:47:54;;;;;;;2.07;1.00;;;;;;;;;;5054194;28;20532;-57
2023/08/28 06:50:21;;;;;;;1.60;0.73;;;;;;;;;;5053196;28;20483;-59
2023/08/28 06:52:50;;;;;;;1.70;0.83;;;;;;;;;;5053162;28;20498;-60
2023/08/28 06:55:17;;;;;;;1.50;0.70;;;;;;;;;;5054453;28;20444;-58
2023/08/28 06:57:46;;;;;;;2.30;1.00;;;;;;;;;;5054115;28;20519;-58
2023/08/28 07:00:14;;;;;;;1.93;0.97;;;;;;;;;;5051282;28;20477;-57
2023/08/28 07:02:41;;;;;;;2.03;0.80;;;;;;;;;;5034536;28;20437;-57
2023/08/28 07:05:09;;;;;;;1.90;1.10;;;;;;;;;;5048178;28;20523;-57
2023/08/28 07:07:36;;;;;;;2.00;1.00;;;;;;;;;;5053348;28;20469;-59
2023/08/28 07:10:05;;;;;;;3.40;0.90;;;;;;;;;;5054115;28;20498;-58
2023/08/28 07:12:34;;;;;;;2.17;1.00;;;;;;;;;;5053843;28;20536;-60
2023/08/28 07:15:27;;;;;;;2.30;1.40;;;;;;;;;;5053253;28;20829;-58
2023/08/28 07:17:54;;;;;;;1.93;1.13;;;;;;;;;;5052212;28;20845;-58
2023/08/28 07:20:23;;;;;;;1.87;0.70;;;;;;;;;;5053504;28;20498;-57
2023/08/28 07:22:51;;;;;;;1.90;0.80;;;;;;;;;;5049969;28;20815;-57
2023/08/28 07:25:22;;;;;;;1.87;0.90;;;;;;;;;;5042433;28;20509;-57
2023/08/28 07:27:49;;;;;;;2.20;0.60;;;;;;;;;;5053692;28;20487;-59
2023/08/28 07:30:16;;;;;;;2.00;0.77;;;;;;;;;;5053307;28;20563;-58
2023/08/28 07:32:44;;;;;;;2.60;0.70;;;;;;;;;;5053679;28;20477;-58
2023/08/28 07:35:11;;;;;;;3.90;0.80;;;;;;;;;;5034672;28;20481;-57
2023/08/28 07:37:38;;;;;;;2.03;1.20;;;;;;;;;;5032290;28;20544;-58
2023/08/28 07:40:06;;;;;;;2.70;0.83;;;;;;;;;;5032979;28;20200;-57
2023/08/28 07:42:35;;;;;;;1.50;0.40;;;;;;;;;;5032813;28;20434;-57
2023/08/28 07:45:02;;;;;;;3.93;0.87;;;;;;;;;;5033001;28;20518;-59
2023/08/28 07:47:30;;;;;;;1.90;0.90;;;;;;;;;;5032671;28;20445;-57
2023/08/28 07:49:57;;;;;;;1.40;0.50;;;;;;;;;;5043929;28;20499;-57
2023/08/28 07:52:24;;;;;;;1.50;0.50;;;;;;;;;;5053162;28;20471;-58
2023/08/28 07:54:51;;;;;;;1.50;0.30;;;;;;;;;;5052992;28;20544;-59
2023/08/28 07:57:23;;;;;;;1.60;0.70;;;;;;;;;;5052827;28;20905;-58
2023/08/28 07:59:51;;;;;;;1.70;0.60;;;;;;;;;;5051749;28;20446;-58
2023/08/28 08:02:19;;;;;;;1.60;0.60;;;;;;;;;;5052899;28;20940;-58
2023/08/28 08:04:46;;;;;;;1.67;0.67;;;;;;;;;;5051406;28;20473;-59
2023/08/28 08:07:13;;;;;;;1.60;0.83;;;;;;;;;;5052916;28;20516;-59
2023/08/28 08:09:40;;;;;;;1.50;0.70;;;;;;;;;;5052616;28;20442;-58
2023/08/28 08:12:08;;;;;;;2.13;1.00;;;;;;;;;;5057697;28;20448;-59
2023/08/28 08:14:35;;;;;;;1.60;0.70;;;;;;;;;;5052213;28;21011;-58
2023/08/28 08:17:04;;;;;;;2.30;0.90;;;;;;;;;;5059351;28;20521;-59
2023/08/28 08:19:31;;;;;;;1.50;0.80;;;;;;;;;;5064991;28;20519;-59
2023/08/28 08:21:58;;;;;;;1.53;0.70;;;;;;;;;;5066595;28;20794;-59
2023/08/28 08:24:26;;;;;;;2.20;0.97;;;;;;;;;;5060573;28;20560;-57
2023/08/28 08:26:53;;;;;;;2.27;1.10;;;;;;;;;;5066592;28;20464;-57
2023/08/28 08:29:20;;;;;;;2.53;0.70;;;;;;;;;;5053324;28;20477;-57
2023/08/28 08:31:47;;;;;;;1.53;0.77;;;;;;;;;;5057526;28;20995;-58
2023/08/28 08:34:18;;;;;;;1.80;0.60;;;;;;;;;;5062161;28;20484;-57
2023/08/28 08:36:45;;;;;;;1.90;0.90;;;;;;;;;;5059544;28;20441;-58
2023/08/28 08:39:12;;;;;;;2.40;0.60;;;;;;;;;;5055480;28;20434;-58
2023/08/28 08:41:40;;;;;;;1.60;0.60;;;;;;;;;;5053783;28;20519;-59
2023/08/28 08:44:07;;;;;;;1.57;0.47;;;;;;;;;;5124438;22;20488;-56
2023/08/28 08:46:35;;;;;;;1.90;0.60;;;;;;;;;;5071751;28;20780;-55
2023/08/28 08:49:04;;;;;;;5.00;4.17;;;;;;;;;;5058523;28;20966;-55
2023/08/28 08:51:33;;;;;;;25.87;23.13;;;;;;;;;;5071231;28;20432;-55
2023/08/28 08:54:04;;;;;;;13.07;11.23;;;;;;;;;;5071063;28;20448;-55
2023/08/28 08:56:33;;;;;;;3.23;2.13;;;;;;;;;;5070929;28;20451;-56
2023/08/28 08:59:01;;;;;;;6.53;2.03;;;;;;;;;;5071689;28;20856;-57
2023/08/28 09:01:30;;;;;;;2.70;0.80;;;;;;;;;;5068887;28;20487;-56
2023/08/28 09:03:58;;;;;;;6.33;3.60;;;;;;;;;;5057759;28;20488;-55
2023/08/28 09:06:26;;;;;;;2.83;1.70;;;;;;;;;;5071518;28;20436;-55
2023/08/28 09:08:55;;;;;;;1.60;0.67;;;;;;;;;;5071714;28;21008;-55
2023/08/28 09:11:22;;;;;;;1.80;0.70;;;;;;;;;;5070324;28;21003;-55
2023/08/28 09:13:51;;;;;;;1.50;0.50;;;;;;;;;;5070772;28;20527;-54
2023/08/28 09:16:19;;;;;;;1.40;0.40;;;;;;;;;;5071366;28;20436;-54
2023/08/28 09:18:47;;;;;;;1.63;0.63;;;;;;;;;;5071621;28;20490;-55
2023/08/28 09:21:15;;;;;;;1.80;0.50;;;;;;;;;;5071195;28;20436;-55
2023/08/28 09:23:43;;;;;;;2.33;0.80;;;;;;;;;;5070326;28;20449;-55
2023/08/28 09:26:14;;;;;;;1.70;0.53;;;;;;;;;;5071190;28;20472;-55
2023/08/28 09:28:41;;;;;;;1.60;0.60;;;;;;;;;;5071547;28;20514;-56
2023/08/28 09:31:08;;;;;;;1.97;0.70;;;;;;;;;;5070386;28;20495;-56
2023/08/28 09:33:44;;;;;;;1.80;0.60;;;;;;;;;;5069749;28;20459;-56
2023/08/28 09:36:16;;;;;;;2.07;0.50;;;;;;;;;;5070233;28;20440;-56
2023/08/28 09:38:43;;;;;;;1.43;0.40;;;;;;;;;;5070928;28;20544;-56
2023/08/28 09:41:10;;;;;;;1.40;0.37;;;;;;;;;;5070377;28;20468;-55
2023/08/28 09:43:39;;;;;;;1.30;0.30;;;;;;;;;;5070176;28;20491;-55
2023/08/28 09:46:07;;;;;;;1.50;0.60;;;;;;;;;;5070837;28;20568;-56
2023/08/28 09:48:35;;;;;;;1.40;0.50;;;;;;;;;;5070307;28;20843;-55
2023/08/28 09:51:03;;;;;;;1.30;0.37;;;;;;;;;;5070446;28;20471;-55
2023/08/28 09:53:31;;;;;;;2.20;0.47;;;;;;;;;;5070596;28;20433;-56
2023/08/28 09:55:58;;;;;;;1.77;0.47;;;;;;;;;;5070717;28;20523;-56
2023/08/28 09:58:26;;;;;;;1.60;0.57;;;;;;;;;;5071122;28;20520;-56
2023/08/28 10:00:56;;;;;;;2.13;0.60;;;;;;;;;;5071023;28;20535;-55
2023/08/28 10:03:24;;;;;;;1.50;0.60;;;;;;;;;;5070437;28;20436;-55
2023/08/28 10:05:52;;;;;;;1.83;0.70;;;;;;;;;;5070663;28;20565;-56
2023/08/28 10:08:20;;;;;;;1.60;0.70;;;;;;;;;;5070894;28;20464;-56
2023/08/28 10:10:48;;;;;;;1.73;0.70;;;;;;;;;;5070767;28;20738;-56
2023/08/28 10:13:16;;;;;;;1.50;0.47;;;;;;;;;;5070880;28;20440;-56
2023/08/28 10:15:48;;;;;;;2.03;0.70;;;;;;;;;;5072430;28;20444;-55
2023/08/28 10:18:22;;;;;;;2.00;1.00;;;;;;;;;;5074802;28;20491;-55
2023/08/28 10:20:49;;;;;;;1.70;0.60;;;;;;;;;;5074445;28;21011;-55
2023/08/28 10:23:17;;;;;;;1.70;0.80;;;;;;;;;;5072906;28;20510;-56
2023/08/28 10:25:46;;;;;;;1.60;0.70;;;;;;;;;;5073706;28;20550;-56
2023/08/28 10:28:13;;;;;;;1.80;0.83;;;;;;;;;;5073776;28;20476;-55
2023/08/28 10:30:41;;;;;;;2.10;0.80;;;;;;;;;;5071761;28;20468;-55
2023/08/28 10:33:11;;;;;;;2.73;0.70;;;;;;;;;;5068292;28;20929;-56
2023/08/28 10:35:42;;;;;;;1.63;0.70;;;;;;;;;;5074133;28;20882;-56
2023/08/28 10:38:11;;;;;;;2.23;0.70;;;;;;;;;;5058242;28;20444;-55
2023/08/28 10:40:38;;;;;;;1.50;0.53;;;;;;;;;;5057142;28;21021;-55
2023/08/28 10:43:06;;;;;;;2.53;0.93;;;;;;;;;;5073377;28;20531;-56
2023/08/28 10:45:35;;;;;;;2.17;0.80;;;;;;;;;;5073525;28;20515;-57
2023/08/28 10:48:03;;;;;;;1.70;0.60;;;;;;;;;;5074495;28;20487;-55
2023/08/28 10:50:35;;;;;;;1.57;0.60;;;;;;;;;;5071772;28;20529;-57
2023/08/28 10:53:04;;;;;;;1.40;0.50;;;;;;;;;;5061383;28;20523;-57
2023/08/28 10:55:31;;;;;;;1.63;0.70;;;;;;;;;;5073954;28;20452;-55
2023/08/28 10:58:03;;;;;;;1.60;0.50;;;;;;;;;;5073149;28;20954;-55
2023/08/28 11:00:30;;;;;;;1.93;0.60;;;;;;;;;;5072670;28;20437;-57
2023/08/28 11:03:04;;;;;;;1.50;0.60;;;;;;;;;;5060422;28;20520;-55
2023/08/28 11:05:31;;;;;;;1.40;0.40;;;;;;;;;;5062666;28;20564;-55
2023/08/28 11:08:03;;;;;;;1.53;0.33;;;;;;;;;;5068646;28;20488;-54
2023/08/28 11:10:32;;;;;;;1.40;0.47;;;;;;;;;;5074176;28;20440;-55
2023/08/28 11:13:03;;;;;;;3.30;1.17;;;;;;;;;;5073618;28;20520;-57
2023/08/28 11:15:31;;;;;;;1.50;0.70;;;;;;;;;;5073880;28;20452;-55
2023/08/28 11:18:17;;;;;;;1.40;0.50;;;;;;;;;;5059137;28;20503;-56
2023/08/28 11:20:47;;;;;;;1.53;0.60;;;;;;;;;;5059764;28;20463;-56
2023/08/28 11:23:20;;;;;;;2.23;0.70;;;;;;;;;;5073018;28;20439;-56
2023/08/28 11:25:49;;;;;;;1.40;0.50;;;;;;;;;;5073593;28;20526;-56
2023/08/28 11:28:26;;;;;;;1.60;0.50;;;;;;;;;;5072839;28;20524;-56
2023/08/28 11:30:53;;;;;;;1.77;0.57;;;;;;;;;;5073327;28;20436;-56
2023/08/28 11:33:21;;;;;;;1.60;0.60;;;;;;;;;;5072711;28;20927;-55
2023/08/28 11:35:48;;;;;;;2.63;0.63;;;;;;;;;;5073229;28;20428;-55
2023/08/28 11:38:18;;;;;;;1.33;0.53;;;;;;;;;;5074059;28;20890;-56
2023/08/28 11:40:45;;;;;;;2.60;0.93;;;;;;;;;;5066406;28;20511;-55
2023/08/28 11:43:16;;;;;;;16.10;6.93;;;;;;;;;;5072979;28;20554;-56
2023/08/28 11:45:43;;;;;;;9.00;4.27;;;;;;;;;;5073131;28;20484;-56
2023/08/28 11:48:10;;;;;;;3.33;1.77;;;;;;;;;;5072916;28;20464;-55
2023/08/28 11:50:38;;;;;;;3.03;1.43;;;;;;;;;;5062289;28;20432;-56
2023/08/28 11:53:05;;;;;;;1.70;0.70;;;;;;;;;;5071946;28;20444;-56
2023/08/28 11:55:33;;;;;;;1.70;0.93;;;;;;;;;;5072607;28;20492;-55
2023/08/28 11:58:01;;;;;;;1.50;0.50;;;;;;;;;;5073290;28;20520;-55
2023/08/28 12:00:30;;;;;;;1.40;0.50;;;;;;;;;;5063344;28;20440;-55
2023/08/28 12:02:58;;;;;;;2.00;0.80;;;;;;;;;;5073201;28;20464;-56
2023/08/28 12:05:25;;;;;;;2.60;0.77;;;;;;;;;;5072519;28;20571;-55
2023/08/28 12:07:52;;;;;;;1.87;0.83;;;;;;;;;;5072855;28;20436;-55
2023/08/28 12:10:21;;;;;;;1.70;0.90;;;;;;;;;;5071504;28;20432;-56
2023/08/28 12:12:53;;;;;;;3.60;1.10;;;;;;;;;;5062667;28;20433;-56
2023/08/28 12:15:21;;;;;;;1.80;0.73;;;;;;;;;;5072912;28;20448;-55
2023/08/28 12:17:49;;;;;;;1.70;0.80;;;;;;;;;;5072729;28;20444;-55
2023/08/28 12:20:20;;;;;;;2.17;1.30;;;;;;;;;;5072713;28;20460;-57
2023/08/28 12:22:47;;;;;;;3.13;1.70;;;;;;;;;;5071552;28;20432;-56
2023/08/28 12:25:14;;;;;;;1.67;0.70;;;;;;;;;;5072309;28;20841;-55
2023/08/28 12:27:42;;;;;;;4.27;0.90;;;;;;;;;;5072319;28;20846;-56
2023/08/28 12:30:19;;;;;;;2.67;1.10;;;;;;;;;;5072007;28;20505;-55
2023/08/28 12:32:54;;;;;;;1.80;0.80;;;;;;;;;;5057078;28;20441;-56
2023/08/28 12:35:22;;;;;;;1.93;0.63;;;;;;;;;;5072318;28;20464;-56
2023/08/28 12:37:51;;;;;;;3.17;0.90;;;;;;;;;;5071020;28;20455;-56
2023/08/28 12:40:18;;;;;;;1.60;0.60;;;;;;;;;;5070695;28;20436;-55
2023/08/28 12:42:46;;;;;;;2.10;0.90;;;;;;;;;;5071412;28;20706;-55
2023/08/28 12:45:13;;;;;;;2.47;1.30;;;;;;;;;;5071539;28;20514;-55
2023/08/28 12:47:41;;;;;;;1.97;1.20;;;;;;;;;;5071540;28;20432;-55
2023/08/28 12:50:10;;;;;;;2.50;1.40;;;;;;;;;;5072145;28;20451;-55
2023/08/28 12:52:37;;;;;;;4.67;2.13;;;;;;;;;;5071055;28;21010;-55
2023/08/28 12:55:05;;;;;;;2.40;1.77;;;;;;;;;;5071893;28;20551;-56
2023/08/28 12:57:32;;;;;;;4.43;1.60;;;;;;;;;;5072135;28;20475;-56
2023/08/28 12:59:59;;;;;;;4.93;3.40;;;;;;;;;;5071973;28;20440;-56
2023/08/28 13:02:26;;;;;;;36.57;24.57;;;;;;;;;;5071775;28;20464;-55
2023/08/28 13:04:54;;;;;;;6.97;5.40;;;;;;;;;;5071766;28;20453;-56
2023/08/28 13:07:22;;;;;;;3.13;1.80;;;;;;;;;;5071807;28;20480;-56
2023/08/28 13:09:50;;;;;;;1.80;0.83;;;;;;;;;;5071773;28;20490;-55
2023/08/28 13:12:18;;;;;;;1.70;0.80;;;;;;;;;;5071129;28;20437;-55
2023/08/28 13:14:46;;;;;;;2.83;0.90;;;;;;;;;;5071572;28;20487;-55
2023/08/28 13:17:14;;;;;;;2.20;1.30;;;;;;;;;;5071848;28;20468;-56
2023/08/28 13:19:41;;;;;;;2.27;1.60;;;;;;;;;;5071603;28;20445;-56
2023/08/28 13:22:08;;;;;;;3.90;0.80;;;;;;;;;;5071186;28;20463;-55
2023/08/28 13:24:37;;;;;;;1.53;0.73;;;;;;;;;;5071187;28;21070;-56
2023/08/28 13:27:04;;;;;;;1.60;0.70;;;;;;;;;;5071508;28;20889;-57
2023/08/28 13:29:32;;;;;;;1.67;1.10;;;;;;;;;;5071531;28;20447;-55
2023/08/28 13:31:59;;;;;;;1.90;0.87;;;;;;;;;;5071080;28;20487;-55
2023/08/28 13:34:26;;;;;;;2.10;0.80;;;;;;;;;;5071282;28;20915;-56
2023/08/28 13:36:53;;;;;;;1.87;0.70;;;;;;;;;;5071350;28;20471;-57
2023/08/28 13:39:20;;;;;;;3.00;1.10;;;;;;;;;;5071625;28;20472;-56
2023/08/28 13:41:49;;;;;;;1.93;1.00;;;;;;;;;;5071190;28;20527;-55
2023/08/28 13:44:16;;;;;;;1.67;1.00;;;;;;;;;;5070832;28;20845;-56
2023/08/28 13:46:44;;;;;;;2.00;0.90;;;;;;;;;;5071327;28;20571;-55
2023/08/28 13:49:11;;;;;;;1.70;0.77;;;;;;;;;;5071094;28;20448;-55
2023/08/28 13:51:39;;;;;;;3.10;0.80;;;;;;;;;;5070571;28;20558;-55
2023/08/28 13:54:06;;;;;;;1.77;0.60;;;;;;;;;;5070472;28;21043;-55
2023/08/28 13:56:33;;;;;;;1.50;0.67;;;;;;;;;;5071475;28;20778;-56
2023/08/28 13:59:04;;;;;;;2.10;0.63;;;;;;;;;;5071405;28;20472;-56
2023/08/28 14:01:33;;;;;;;1.93;0.60;;;;;;;;;;5071089;28;20439;-55
2023/08/28 14:04:00;;;;;;;1.57;0.63;;;;;;;;;;5070775;28;20999;-55
2023/08/28 14:06:28;;;;;;;1.70;0.80;;;;;;;;;;5070886;28;20494;-57
2023/08/28 14:08:55;;;;;;;1.50;0.70;;;;;;;;;;5070869;28;20440;-57
2023/08/28 14:11:22;;;;;;;1.83;0.90;;;;;;;;;;5070937;28;20866;-57
2023/08/28 14:13:50;;;;;;;2.03;1.03;;;;;;;;;;5070770;28;20539;-55
2023/08/28 14:16:18;;;;;;;5.53;3.23;;;;;;;;;;5071163;28;20519;-55
2023/08/28 14:18:46;;;;;;;1.90;0.80;;;;;;;;;;5070886;28;20498;-57
2023/08/28 14:21:13;;;;;;;3.37;1.80;;;;;;;;;;5070659;28;20447;-56
2023/08/28 14:23:40;;;;;;;1.90;1.10;;;;;;;;;;5069922;28;20929;-55
2023/08/28 14:26:08;;;;;;;1.97;0.70;;;;;;;;;;5070722;28;21075;-55
2023/08/28 14:28:36;;;;;;;2.00;0.83;;;;;;;;;;5066883;28;20441;-56
2023/08/28 14:31:03;;;;;;;1.50;0.60;;;;;;;;;;5063091;28;20475;-55
2023/08/28 14:33:32;;;;;;;1.50;0.80;;;;;;;;;;5066468;28;20938;-55
2023/08/28 14:35:59;;;;;;;1.70;0.70;;;;;;;;;;5070242;28;20958;-56
2023/08/28 14:38:26;;;;;;;3.50;0.70;;;;;;;;;;5070118;28;20437;-57
2023/08/28 14:40:54;;;;;;;1.70;0.80;;;;;;;;;;5068089;28;20548;-57
2023/08/28 14:43:21;;;;;;;1.90;0.60;;;;;;;;;;5070285;28;20472;-55
2023/08/28 14:45:48;;;;;;;1.77;0.80;;;;;;;;;;5070025;22;20524;-59
2023/08/28 14:48:15;;;;;;;1.70;0.77;;;;;;;;;;5050691;28;21023;-59